Urbana, IL (61801)

2:44 PM CDT on August 29, 2015 (GMT -0500)
METCAD 9-1-1: East Urbana - Champaign County, Illinois | | Change Station
CLOSE
Current Station
Personal Weather Station
Location: Urbana, IL
Elevation: 732 ft
Nearby Weather Stations

Elev 732 ft 40.11 °N, 88.18 °W | Updated 5 minutes ago

Overcast
Overcast
79.4 °F
Feels Like 82 °F
N
6.0
Wind Variable Wind from South
Gusts 10.0 mph

Today
High -- | Low -- °F
--% Chance of Precip.
Yesterday
High -- | Low -- °F
Precip. -- in
6:17 AM 7:29 PM
Full, 100% visible
Pressure 30.03 in
Visibility 10.0 miles
Clouds Few 7000 ft
Mostly Cloudy 9000 ft
Overcast 12000 ft
Heat Index 82 °F
Dew Point 68 °F
Humidity 69%
Rainfall 0.00 in
Snow Depth Not available.
UV 3 out of 12
Pollen 9.90 out of 12
Air Quality Not available.
Flu Activity Not available.
METAR KCMI 291853Z 21004KT 10SM FEW070 BKN090 OVC120 26/20 A3004 RMK AO2 RAB43E53 SLP169 P0000 T02610200
Pressure 30.03 in
Visibility 10.0 miles
Clouds Few 7000 ft
Mostly Cloudy 9000 ft
Overcast 12000 ft
Heat Index 82 °F
Dew Point 68 °F
Humidity 69%
Rainfall 0.00 in
Snow Depth Not available.
UV 3 out of 12
Pollen 9.90 out of 12
Air Quality Not available.
Flu Activity Not available.
METAR KCMI 291853Z 21004KT 10SM FEW070 BKN090 OVC120 26/20 A3004 RMK AO2 RAB43E53 SLP169 P0000 T02610200

10-Day Weather Forecast

×

Almanac

Astronomy

Aug. 29, 2015 Rise Set
Actual Time
Civil Twilight
Nautical Twilight
Astronomical Twilight
Moon
Length of Visible Light
Length of Day
Tomorrow will be .
, % of the Moon is Illuminated

Today's Extremes

State Highs State Lows

Community

WunderPhotos

Upload Photos

1,850,786 photos uploaded!

WunderBlogs® & News

Nearby

Air Quality

  Air Quality AQ Index Pollutant
Not available.

Snow Depth

Station Depth Elevation

Earthquake Activity

City Distance Mag. Time & Date
Minimum magnitude displayed is 2.5.

Coastal Water Temperatures

Place Temperature

Stations

Nearby Weather Stations

Station Location Temp. Windchill Dew Point Humidity Wind Precip. Elev Updated Type